Time;durP1;ratioP1;P1;durP2;ratioP2;P2;SDS_P1;SDS_P2;PMS_P1;PMS_P2;Temp;Humidity;BMP_temperature;BMP_pressure;BME280_temperature;BME280_humidity;BME280_pressure;Samples;Min_cycle;Max_cycle;Signal;HPM_P1;HPM_P2
2024/01/14 00:02:08;;;;;;;71.82;30.05;;;4.20;99.90;;;;;;5040631;28;20093;-80
2024/01/14 00:04:34;;;;;;;71.70;32.33;;;4.20;99.90;;;;;;5038563;28;20481;-80
2024/01/14 00:07:00;;;;;;;72.88;30.45;;;4.10;99.90;;;;;;5037786;28;20040;-81
2024/01/14 00:09:25;;;;;;;71.72;31.42;;;4.10;99.90;;;;;;5037507;28;20457;-80
2024/01/14 00:11:51;;;;;;;67.85;31.05;;;4.10;99.90;;;;;;5038046;28;20503;-80
2024/01/14 00:14:16;;;;;;;70.68;31.88;;;4.10;99.90;;;;;;5037040;28;20056;-80
2024/01/14 00:16:42;;;;;;;66.53;30.80;;;4.10;99.90;;;;;;5027087;28;20034;-80
2024/01/14 00:19:09;;;;;;;66.53;30.38;;;4.10;99.90;;;;;;5037367;28;20017;-80
2024/01/14 00:21:35;;;;;;;70.20;30.98;;;4.20;99.90;;;;;;5037088;28;20036;-79
2024/01/14 00:24:03;;;;;;;64.53;31.25;;;4.10;99.90;;;;;;5038116;28;20055;-80
2024/01/14 00:26:29;;;;;;;70.95;31.92;;;4.10;99.90;;;;;;5032494;28;20033;-80
2024/01/14 00:28:55;;;;;;;63.45;30.35;;;4.10;99.90;;;;;;5035621;28;21048;-80
2024/01/14 00:31:21;;;;;;;71.35;32.22;;;4.00;99.90;;;;;;5038211;28;20073;-80
2024/01/14 00:33:49;;;;;;;71.72;32.10;;;4.00;99.90;;;;;;5038602;28;20083;-80
2024/01/14 00:36:15;;;;;;;72.18;31.63;;;4.00;99.90;;;;;;5037053;28;20144;-81
2024/01/14 00:38:41;;;;;;;70.68;30.80;;;4.00;99.90;;;;;;5034985;28;20048;-81
2024/01/14 00:41:06;;;;;;;65.63;31.98;;;4.00;99.90;;;;;;5038317;28;20864;-81
2024/01/14 00:43:32;;;;;;;65.50;31.15;;;3.90;99.90;;;;;;5040668;28;20017;-81
2024/01/14 00:45:57;;;;;;;63.85;30.77;;;3.90;99.90;;;;;;5036231;28;20497;-80
2024/01/14 00:48:23;;;;;;;65.43;29.23;;;3.90;99.90;;;;;;5033224;28;20173;-80
2024/01/14 00:50:48;;;;;;;66.43;29.40;;;4.00;99.90;;;;;;5033234;28;20056;-80
2024/01/14 00:53:14;;;;;;;57.67;28.52;;;4.00;99.90;;;;;;5033604;28;20410;-80
2024/01/14 00:55:39;;;;;;;61.05;27.40;;;3.90;99.90;;;;;;5032784;28;20481;-80
2024/01/14 00:58:05;;;;;;;60.20;28.00;;;4.00;99.90;;;;;;5033924;28;20056;-80
2024/01/14 01:00:31;;;;;;;65.07;30.25;;;3.90;99.90;;;;;;5033710;28;20108;-81
2024/01/14 01:02:56;;;;;;;58.55;28.67;;;3.90;99.90;;;;;;5032766;28;20017;-81
2024/01/14 01:05:22;;;;;;;60.53;28.45;;;3.90;99.90;;;;;;5033152;28;20024;-80
2024/01/14 01:07:48;;;;;;;59.42;27.50;;;4.00;99.90;;;;;;5031180;28;20038;-80
2024/01/14 01:10:13;;;;;;;47.17;24.13;;;3.90;99.90;;;;;;5027368;28;20064;-80
2024/01/14 01:12:39;;;;;;;57.60;27.30;;;4.00;99.90;;;;;;5037938;28;20472;-81
2024/01/14 01:15:05;;;;;;;57.08;29.40;;;4.00;99.90;;;;;;5037384;28;20476;-81
2024/01/14 01:17:31;;;;;;;59.05;30.35;;;4.00;99.90;;;;;;5035439;28;20068;-81
2024/01/14 01:19:59;;;;;;;58.38;29.30;;;4.10;99.90;;;;;;5036284;28;20043;-81
2024/01/14 01:22:24;;;;;;;70.35;31.20;;;4.10;99.90;;;;;;5031080;28;20052;-81
2024/01/14 01:24:50;;;;;;;66.40;31.50;;;4.10;99.90;;;;;;5038491;28;20060;-81
2024/01/14 01:27:15;;;;;;;69.50;31.08;;;4.20;99.90;;;;;;5038718;28;20033;-81
2024/01/14 01:29:41;;;;;;;66.60;31.02;;;4.20;99.90;;;;;;5036916;28;20032;-81
2024/01/14 01:32:06;;;;;;;65.38;31.35;;;4.20;99.90;;;;;;5028307;28;20036;-81
2024/01/14 01:34:32;;;;;;;67.55;29.60;;;4.30;99.90;;;;;;5037125;28;20484;-81
2024/01/14 01:36:58;;;;;;;60.78;30.30;;;4.30;99.90;;;;;;5041426;28;20033;-80
2024/01/14 01:39:23;;;;;;;63.78;30.13;;;4.30;99.90;;;;;;5038533;28;20032;-80
2024/01/14 01:41:50;;;;;;;66.13;30.40;;;4.30;99.90;;;;;;5051082;28;20021;-80
2024/01/14 01:44:16;;;;;;;69.60;29.98;;;4.30;99.90;;;;;;5029942;28;20025;-81
2024/01/14 01:46:42;;;;;;;62.38;30.40;;;4.30;99.90;;;;;;5036472;28;20040;-81
2024/01/14 01:49:09;;;;;;;63.90;29.67;;;4.30;99.90;;;;;;5036039;28;20060;-81
2024/01/14 01:51:35;;;;;;;61.33;30.20;;;4.30;99.90;;;;;;5040142;28;20111;-80
2024/01/14 01:54:01;;;;;;;65.45;30.27;;;4.30;99.90;;;;;;5032533;28;20062;-81
2024/01/14 01:56:27;;;;;;;49.53;26.92;;;4.30;99.90;;;;;;5037361;28;20554;-81
2024/01/14 01:58:53;;;;;;;55.78;27.63;;;4.40;99.90;;;;;;5036345;28;20713;-81
2024/01/14 02:01:21;;;;;;;61.60;27.63;;;4.40;99.90;;;;;;5040053;28;20024;-81
2024/01/14 02:03:50;;;;;;;55.05;26.92;;;4.40;99.90;;;;;;5036094;28;20033;-81
2024/01/14 02:06:16;;;;;;;56.65;25.05;;;4.40;99.90;;;;;;5025785;28;20063;-81
2024/01/14 02:08:42;;;;;;;51.03;26.52;;;4.40;99.90;;;;;;5037053;28;20029;-82
2024/01/14 02:11:08;;;;;;;44.13;24.48;;;4.40;99.90;;;;;;5035227;28;20040;-81
2024/01/14 02:13:34;;;;;;;48.53;24.77;;;4.40;99.90;;;;;;5037710;28;20032;-81
2024/01/14 02:15:59;;;;;;;51.38;25.27;;;4.40;99.90;;;;;;5040728;28;20043;-81
2024/01/14 02:18:25;;;;;;;47.00;26.10;;;4.40;99.90;;;;;;5024960;28;20473;-81
2024/01/14 02:20:50;;;;;;;53.28;27.20;;;4.40;99.90;;;;;;5034053;28;20061;-81
2024/01/14 02:23:20;;;;;;;50.97;25.58;;;4.40;99.90;;;;;;5034604;28;20079;-81
2024/01/14 02:25:46;;;;;;;52.25;28.25;;;4.40;99.90;;;;;;5035616;28;20029;-81
2024/01/14 02:28:14;;;;;;;54.55;27.08;;;4.40;99.90;;;;;;5036176;28;20633;-81
2024/01/14 02:30:40;;;;;;;57.33;25.95;;;4.30;99.90;;;;;;5031465;28;20515;-81
2024/01/14 02:33:06;;;;;;;52.40;26.90;;;4.30;99.90;;;;;;5032312;28;20033;-81
2024/01/14 02:35:31;;;;;;;56.80;27.65;;;4.20;99.90;;;;;;5037627;28;20045;-81
2024/01/14 02:37:57;;;;;;;54.47;27.17;;;4.20;99.90;;;;;;5038143;28;20044;-81
2024/01/14 02:40:22;;;;;;;51.15;27.40;;;4.10;99.90;;;;;;5026500;28;20044;-81
2024/01/14 02:42:48;;;;;;;61.45;25.88;;;4.00;99.90;;;;;;5035524;28;20022;-80
2024/01/14 02:45:14;;;;;;;57.17;26.67;;;4.00;99.90;;;;;;5037454;28;20033;-81
2024/01/14 02:47:39;;;;;;;49.53;26.40;;;4.00;99.90;;;;;;5034263;28;20083;-81
2024/01/14 02:50:05;;;;;;;53.25;26.85;;;4.10;99.90;;;;;;5036665;28;20251;-80
2024/01/14 02:52:31;;;;;;;53.05;26.45;;;4.10;99.90;;;;;;5031765;28;20071;-80
2024/01/14 02:54:56;;;;;;;53.08;27.85;;;4.10;99.90;;;;;;5035797;28;20072;-81
2024/01/14 02:57:22;;;;;;;54.45;27.92;;;4.10;99.90;;;;;;5039763;28;20040;-81
2024/01/14 02:59:47;;;;;;;57.60;28.75;;;4.10;99.90;;;;;;5034183;28;20362;-80
2024/01/14 03:02:13;;;;;;;58.90;28.13;;;4.00;99.90;;;;;;5029010;28;20049;-81
2024/01/14 03:04:38;;;;;;;55.33;28.65;;;4.10;99.90;;;;;;5038864;28;20025;-81
2024/01/14 03:07:04;;;;;;;57.30;27.35;;;4.00;99.90;;;;;;5037268;28;20028;-79
2024/01/14 03:09:29;;;;;;;58.28;29.50;;;3.90;99.90;;;;;;5034171;28;20025;-79
2024/01/14 03:11:55;;;;;;;56.28;29.23;;;4.00;99.90;;;;;;5037982;28;20033;-79
2024/01/14 03:14:20;;;;;;;63.40;28.73;;;4.00;99.90;;;;;;5027058;28;20032;-79
2024/01/14 03:16:46;;;;;;;57.70;28.63;;;4.00;99.90;;;;;;5036969;28;20037;-81
2024/01/14 03:19:12;;;;;;;70.22;30.58;;;4.00;99.90;;;;;;5034839;28;20312;-80
2024/01/14 03:21:37;;;;;;;56.40;29.05;;;4.00;99.90;;;;;;5036617;28;20565;-81
2024/01/14 03:24:03;;;;;;;54.22;28.13;;;4.00;99.90;;;;;;5037513;28;20025;-80
2024/01/14 03:26:29;;;;;;;62.08;28.75;;;4.10;99.90;;;;;;5030509;28;20033;-80
2024/01/14 03:28:55;;;;;;;57.92;28.85;;;4.10;99.90;;;;;;5035127;28;20389;-80
2024/01/14 03:31:21;;;;;;;55.33;28.08;;;4.00;99.90;;;;;;5035118;28;20036;-80
2024/01/14 03:33:47;;;;;;;50.83;26.73;;;4.00;99.90;;;;;;5038698;28;20032;-79
2024/01/14 03:36:14;;;;;;;56.58;28.00;;;4.10;99.90;;;;;;5027694;28;20362;-80
2024/01/14 03:38:40;;;;;;;61.85;30.63;;;4.10;99.90;;;;;;5033281;28;20028;-80
2024/01/14 03:41:05;;;;;;;49.35;27.10;;;4.10;99.90;;;;;;5038983;28;20037;-80
2024/01/14 03:43:31;;;;;;;52.13;27.50;;;4.00;99.90;;;;;;5037787;28;20104;-81
2024/01/14 03:45:56;;;;;;;50.70;27.33;;;4.00;99.90;;;;;;5034551;28;20547;-80
2024/01/14 03:48:22;;;;;;;50.92;26.05;;;4.10;99.90;;;;;;5032035;28;20022;-81
2024/01/14 03:50:47;;;;;;;58.95;27.55;;;4.10;99.90;;;;;;5036745;28;20048;-81
2024/01/14 03:53:13;;;;;;;49.72;26.02;;;4.10;99.90;;;;;;5042077;28;20033;-81
2024/01/14 03:55:39;;;;;;;50.05;25.83;;;4.10;99.90;;;;;;5041990;28;20047;-81
2024/01/14 03:58:05;;;;;;;51.08;25.75;;;4.20;99.90;;;;;;5029613;28;20111;-81
2024/01/14 04:00:30;;;;;;;46.35;24.63;;;4.10;99.90;;;;;;5039994;28;20017;-81
2024/01/14 04:02:56;;;;;;;53.28;27.02;;;4.20;99.90;;;;;;5037430;28;20036;-80
2024/01/14 04:05:22;;;;;;;51.05;25.73;;;4.20;99.90;;;;;;5037776;28;20025;-80
2024/01/14 04:07:49;;;;;;;47.60;25.70;;;4.20;99.90;;;;;;5040881;28;20029;-81
2024/01/14 04:10:16;;;;;;;48.30;24.58;;;4.20;99.90;;;;;;5034243;28;20040;-80
2024/01/14 04:12:42;;;;;;;47.92;25.77;;;4.30;99.90;;;;;;5038870;28;20480;-80
2024/01/14 04:15:08;;;;;;;48.17;24.92;;;4.20;99.90;;;;;;5038923;28;20127;-80
2024/01/14 04:17:34;;;;;;;48.75;24.75;;;4.20;99.90;;;;;;5038999;28;20083;-81
2024/01/14 04:20:03;;;;;;;47.78;24.20;;;4.20;99.90;;;;;;5039078;28;20025;-80
2024/01/14 04:22:29;;;;;;;56.23;25.80;;;4.20;99.90;;;;;;5034621;28;20037;-80
2024/01/14 04:24:54;;;;;;;43.55;23.33;;;4.20;99.90;;;;;;5040310;28;20028;-81
2024/01/14 04:27:20;;;;;;;49.85;26.23;;;4.20;99.90;;;;;;5038354;28;20484;-81
2024/01/14 04:29:45;;;;;;;49.00;24.20;;;4.20;99.90;;;;;;5038932;28;20060;-79
2024/01/14 04:32:11;;;;;;;45.63;24.90;;;4.20;99.90;;;;;;5036208;28;20036;-80
2024/01/14 04:34:37;;;;;;;48.63;25.10;;;4.20;99.90;;;;;;5033031;28;20384;-80
2024/01/14 04:37:03;;;;;;;45.03;23.88;;;4.30;99.90;;;;;;5037651;28;20041;-80
2024/01/14 04:39:29;;;;;;;46.35;24.10;;;4.20;99.90;;;;;;5036618;28;20021;-82
2024/01/14 04:41:54;;;;;;;47.25;23.67;;;4.20;99.90;;;;;;5034734;28;20040;-81
2024/01/14 04:44:20;;;;;;;47.40;25.60;;;4.10;99.90;;;;;;5028743;28;20108;-80
2024/01/14 04:46:46;;;;;;;52.75;25.77;;;4.10;99.90;;;;;;5041379;28;20041;-80
2024/01/14 04:49:11;;;;;;;47.88;25.27;;;4.10;99.90;;;;;;5031524;28;20505;-80
2024/01/14 04:51:37;;;;;;;49.55;24.83;;;4.10;99.90;;;;;;5031107;28;20057;-79
2024/01/14 04:54:03;;;;;;;53.10;26.70;;;4.10;99.90;;;;;;5036902;28;20021;-80
2024/01/14 04:56:29;;;;;;;53.63;26.75;;;4.10;99.90;;;;;;5037749;28;20438;-80
2024/01/14 04:58:55;;;;;;;49.67;25.70;;;4.10;99.90;;;;;;5042074;28;20057;-80
2024/01/14 05:01:20;;;;;;;51.42;25.92;;;4.10;99.90;;;;;;5037774;28;20350;-80
2024/01/14 05:03:46;;;;;;;55.05;27.60;;;4.10;99.90;;;;;;5032551;28;20058;-80
2024/01/14 05:06:12;;;;;;;48.80;26.13;;;4.10;99.90;;;;;;5040973;28;20041;-80
2024/01/14 05:08:40;;;;;;;51.28;26.95;;;4.10;99.90;;;;;;5037784;28;20088;-79
2024/01/14 05:11:06;;;;;;;52.75;26.95;;;4.10;99.90;;;;;;5037387;28;20035;-81
2024/01/14 05:13:32;;;;;;;53.55;26.40;;;4.00;99.90;;;;;;5040415;28;20028;-80
2024/01/14 05:15:57;;;;;;;50.25;26.85;;;4.00;99.90;;;;;;5031014;28;20095;-80
2024/01/14 05:18:23;;;;;;;53.08;26.73;;;4.00;99.90;;;;;;5036627;28;20064;-80
2024/01/14 05:20:48;;;;;;;58.53;29.05;;;3.90;99.90;;;;;;5035974;28;20029;-80
2024/01/14 05:23:14;;;;;;;56.80;27.00;;;3.90;99.90;;;;;;5043591;28;20074;-81
2024/01/14 05:25:40;;;;;;;53.67;27.05;;;3.90;99.90;;;;;;5040999;28;20071;-81
2024/01/14 05:28:05;;;;;;;60.20;28.42;;;3.90;99.90;;;;;;5030547;28;20381;-80
2024/01/14 05:30:31;;;;;;;56.30;28.40;;;3.90;99.90;;;;;;5038313;28;20086;-80
2024/01/14 05:32:57;;;;;;;61.65;29.65;;;3.90;99.90;;;;;;5039128;28;20033;-80
2024/01/14 05:35:22;;;;;;;58.78;29.52;;;3.90;99.90;;;;;;5037483;28;20029;-80
2024/01/14 05:37:48;;;;;;;57.72;28.90;;;3.90;99.90;;;;;;5038912;28;20448;-80
2024/01/14 05:40:14;;;;;;;53.10;27.45;;;3.90;99.90;;;;;;5031564;28;20026;-80
2024/01/14 05:42:40;;;;;;;51.75;26.45;;;3.90;99.90;;;;;;5031630;28;20038;-80
2024/01/14 05:45:07;;;;;;;59.58;28.58;;;4.00;99.90;;;;;;5037926;28;20052;-80
2024/01/14 05:47:33;;;;;;;57.63;28.83;;;4.00;99.90;;;;;;5038817;28;20029;-80
2024/01/14 05:49:59;;;;;;;51.35;27.10;;;4.00;99.90;;;;;;5033150;28;20032;-80
2024/01/14 05:52:25;;;;;;;53.65;28.40;;;4.00;99.90;;;;;;5039389;28;20417;-80
2024/01/14 05:54:51;;;;;;;55.95;27.17;;;4.00;99.90;;;;;;5035679;28;20434;-80
2024/01/14 05:57:16;;;;;;;53.92;27.77;;;4.00;99.90;;;;;;5037104;28;20039;-80
2024/01/14 05:59:42;;;;;;;51.80;25.73;;;4.10;99.90;;;;;;5035686;28;20554;-80
2024/01/14 06:02:09;;;;;;;48.83;25.48;;;4.10;99.90;;;;;;5028619;28;20025;-80
2024/01/14 06:04:34;;;;;;;53.97;24.95;;;4.10;99.90;;;;;;5033670;28;20022;-80
2024/01/14 06:07:00;;;;;;;52.45;25.67;;;4.10;99.90;;;;;;5039795;28;20403;-80
2024/01/14 06:09:25;;;;;;;49.08;25.20;;;4.10;99.90;;;;;;5043421;28;20409;-80
2024/01/14 06:11:51;;;;;;;50.13;26.00;;;4.10;99.90;;;;;;5034917;28;20473;-80
2024/01/14 06:14:17;;;;;;;46.85;25.08;;;4.10;99.90;;;;;;5039061;28;20102;-80
2024/01/14 06:16:42;;;;;;;50.40;25.45;;;4.10;99.90;;;;;;5032881;28;20099;-80
2024/01/14 06:19:08;;;;;;;54.78;26.65;;;4.10;99.90;;;;;;5037958;28;20036;-80
2024/01/14 06:21:33;;;;;;;52.50;26.05;;;4.10;99.90;;;;;;5029939;28;20058;-82
2024/01/14 06:23:59;;;;;;;56.45;26.50;;;4.10;99.90;;;;;;5029146;28;20302;-81
2024/01/14 06:26:24;;;;;;;56.70;27.25;;;4.10;99.90;;;;;;5026203;28;20030;-80
2024/01/14 06:28:50;;;;;;;56.58;28.38;;;4.10;99.90;;;;;;5031547;28;20028;-79
2024/01/14 06:31:16;;;;;;;55.67;27.63;;;4.10;99.90;;;;;;5030506;28;20033;-80
2024/01/14 06:33:42;;;;;;;54.20;27.38;;;4.10;99.90;;;;;;5029735;28;20037;-80
2024/01/14 06:36:08;;;;;;;58.22;26.30;;;4.10;99.90;;;;;;5030523;28;20044;-80
2024/01/14 06:38:36;;;;;;;61.33;28.25;;;4.00;99.90;;;;;;5029317;28;20100;-80
2024/01/14 06:41:03;;;;;;;60.22;28.00;;;4.00;99.90;;;;;;5030222;28;20032;-80
2024/01/14 06:43:30;;;;;;;61.10;28.05;;;4.00;99.90;;;;;;5027440;28;20034;-80
2024/01/14 06:45:56;;;;;;;60.38;27.70;;;4.00;99.90;;;;;;5021486;28;20037;-80
2024/01/14 06:48:21;;;;;;;60.00;28.13;;;3.90;99.90;;;;;;5020165;28;20112;-80
2024/01/14 06:50:48;;;;;;;64.25;27.42;;;3.90;99.90;;;;;;5027902;28;20048;-78
2024/01/14 06:53:13;;;;;;;61.97;27.88;;;3.90;99.90;;;;;;5047638;28;20029;-79
2024/01/14 06:55:39;;;;;;;56.42;25.95;;;3.90;99.90;;;;;;5034796;28;20031;-80
2024/01/14 06:58:04;;;;;;;56.72;27.17;;;3.80;99.90;;;;;;5049843;28;20446;-80
2024/01/14 07:00:30;;;;;;;59.42;27.10;;;3.80;99.90;;;;;;5051374;28;20083;-80
2024/01/14 07:02:56;;;;;;;54.50;26.88;;;3.80;99.90;;;;;;5036217;28;20124;-80
2024/01/14 07:05:22;;;;;;;47.35;24.33;;;3.80;99.90;;;;;;5029722;28;20560;-80
2024/01/14 07:07:48;;;;;;;51.47;25.40;;;3.90;99.90;;;;;;5010798;28;20526;-80
2024/01/14 07:10:13;;;;;;;55.80;24.52;;;3.80;99.90;;;;;;5016009;28;20057;-80
2024/01/14 07:12:39;;;;;;;61.75;26.20;;;3.80;99.90;;;;;;5032866;28;20034;-79
2024/01/14 07:15:05;;;;;;;54.20;26.05;;;3.80;99.90;;;;;;5025452;28;20025;-78
2024/01/14 07:17:31;;;;;;;57.38;27.88;;;3.80;99.90;;;;;;5009425;28;20462;-79
2024/01/14 07:19:56;;;;;;;54.97;24.73;;;4.70;99.90;;;;;;5009840;28;20104;-79
2024/01/14 07:22:22;;;;;;;53.85;25.60;;;3.80;99.90;;;;;;5009903;28;20022;-80
2024/01/14 07:24:47;;;;;;;55.53;25.92;;;3.90;99.90;;;;;;5011730;28;20022;-80
2024/01/14 07:27:13;;;;;;;49.80;26.67;;;3.90;99.90;;;;;;5034888;28;20033;-80
2024/01/14 07:29:39;;;;;;;50.55;25.02;;;3.90;99.90;;;;;;5029660;28;20461;-80
2024/01/14 07:32:04;;;;;;;49.47;24.00;;;3.90;99.90;;;;;;5052673;28;20276;-80
2024/01/14 07:34:30;;;;;;;49.13;25.05;;;3.90;99.90;;;;;;5049776;28;20037;-80
2024/01/14 07:36:56;;;;;;;50.40;22.45;;;3.90;99.90;;;;;;5049947;28;20436;-80
2024/01/14 07:39:22;;;;;;;45.22;23.35;;;3.90;99.90;;;;;;5051995;28;20032;-80
2024/01/14 07:41:47;;;;;;;46.75;22.45;;;3.90;99.90;;;;;;5048375;28;20031;-80
2024/01/14 07:44:14;;;;;;;42.50;23.45;;;3.90;99.90;;;;;;5052348;28;20481;-80
2024/01/14 07:46:39;;;;;;;49.05;23.65;;;3.90;99.90;;;;;;5050533;28;20025;-81
2024/01/14 07:49:05;;;;;;;46.60;24.30;;;3.90;99.90;;;;;;5052126;28;20048;-80
2024/01/14 07:51:30;;;;;;;50.38;23.48;;;3.90;99.90;;;;;;5035719;28;20402;-80
2024/01/14 07:53:56;;;;;;;50.70;25.00;;;4.00;99.90;;;;;;5033483;28;20109;-80
2024/01/14 07:56:21;;;;;;;44.40;24.42;;;3.90;99.90;;;;;;5036003;28;20123;-80
2024/01/14 07:58:50;;;;;;;46.25;22.50;;;3.90;99.90;;;;;;5033410;28;20025;-80
2024/01/14 08:01:16;;;;;;;51.17;25.77;;;3.90;99.90;;;;;;5034575;28;20035;-80
2024/01/14 08:03:42;;;;;;;45.95;24.67;;;3.90;99.90;;;;;;5034707;28;20029;-80
2024/01/14 08:06:08;;;;;;;55.25;26.00;;;3.90;99.90;;;;;;5048750;28;20032;-81
2024/01/14 08:08:34;;;;;;;55.47;25.42;;;3.90;99.90;;;;;;5033379;28;20120;-81
2024/01/14 08:11:00;;;;;;;48.63;24.58;;;3.90;99.90;;;;;;5027990;28;20020;-81
2024/01/14 08:13:25;;;;;;;53.40;25.90;;;3.90;99.90;;;;;;5033247;28;20056;-81
2024/01/14 08:15:51;;;;;;;57.72;25.80;;;3.90;99.90;;;;;;5033611;28;20045;-80
2024/01/14 08:18:19;;;;;;;58.92;26.83;;;4.00;99.90;;;;;;5046599;28;20029;-80
2024/01/14 08:20:45;;;;;;;54.67;26.15;;;4.00;99.90;;;;;;5051124;28;20048;-81
2024/01/14 08:23:11;;;;;;;59.22;28.13;;;4.00;99.90;;;;;;5044560;28;20021;-80
2024/01/14 08:25:36;;;;;;;58.17;27.50;;;4.00;99.90;;;;;;5018829;28;20033;-81
2024/01/14 08:28:03;;;;;;;57.15;28.67;;;4.00;99.90;;;;;;5034904;28;20037;-81
2024/01/14 08:30:29;;;;;;;54.85;26.35;;;4.10;99.90;;;;;;5044248;28;20473;-80
2024/01/14 08:32:54;;;;;;;54.38;24.95;;;4.00;99.90;;;;;;5032050;28;20041;-80
2024/01/14 08:35:20;;;;;;;51.40;26.67;;;4.00;99.90;;;;;;5023390;28;20040;-80
2024/01/14 08:37:48;;;;;;;56.00;27.27;;;4.10;99.90;;;;;;5021596;28;20370;-80
2024/01/14 08:40:14;;;;;;;55.60;25.98;;;4.10;99.90;;;;;;5026094;28;20056;-80
2024/01/14 08:42:44;;;;;;;55.03;26.73;;;4.10;99.90;;;;;;5019402;28;20545;-80
2024/01/14 08:45:13;;;;;;;51.20;24.70;;;4.00;99.90;;;;;;5030686;28;20029;-79
2024/01/14 08:47:39;;;;;;;49.72;25.95;;;4.00;99.90;;;;;;5029467;28;20030;-79
2024/01/14 08:50:09;;;;;;;49.13;25.85;;;4.00;99.90;;;;;;5032422;28;20448;-79
2024/01/14 08:52:36;;;;;;;54.13;26.52;;;4.10;99.90;;;;;;5027605;28;20132;-79
2024/01/14 08:55:02;;;;;;;47.13;24.27;;;4.10;99.90;;;;;;5029742;28;20040;-79
2024/01/14 08:57:28;;;;;;;61.58;26.48;;;4.10;99.90;;;;;;5030302;28;20080;-79
2024/01/14 08:59:53;;;;;;;52.17;26.38;;;4.10;99.90;;;;;;5042391;28;20087;-78
2024/01/14 09:02:19;;;;;;;56.60;25.70;;;4.10;99.90;;;;;;5036421;28;20160;-79
2024/01/14 09:04:44;;;;;;;50.42;25.10;;;4.20;99.90;;;;;;5034878;28;20025;-79
2024/01/14 09:07:11;;;;;;;48.83;26.08;;;4.10;99.90;;;;;;5030310;28;20037;-79
2024/01/14 09:09:36;;;;;;;50.88;24.90;;;4.20;99.90;;;;;;5031468;28;20045;-86
2024/01/14 09:12:02;;;;;;;54.95;27.15;;;4.10;99.90;;;;;;5035542;28;20056;-79
2024/01/14 09:14:28;;;;;;;54.10;24.95;;;4.20;99.90;;;;;;5031091;28;20025;-79
2024/01/14 09:16:53;;;;;;;55.53;26.02;;;4.20;99.90;;;;;;5015873;28;20046;-80
2024/01/14 09:19:19;;;;;;;53.65;24.77;;;4.20;99.90;;;;;;5031656;28;20022;-80
2024/01/14 09:21:44;;;;;;;52.50;25.13;;;4.20;99.90;;;;;;5032047;28;20022;-79
2024/01/14 09:24:10;;;;;;;57.95;26.38;;;4.20;99.90;;;;;;5032045;28;20027;-83
2024/01/14 09:26:36;;;;;;;54.63;27.60;;;4.10;99.90;;;;;;5034155;28;20029;-84
2024/01/14 09:29:01;;;;;;;56.22;25.92;;;4.20;99.90;;;;;;5044585;28;20029;-84
2024/01/14 09:31:27;;;;;;;50.28;25.15;;;4.10;99.90;;;;;;5034539;28;20399;-83
2024/01/14 09:33:53;;;;;;;47.58;25.33;;;4.20;99.90;;;;;;5032961;28;20025;-80
2024/01/14 09:36:19;;;;;;;52.17;25.73;;;4.20;99.90;;;;;;5025777;28;20037;-80
2024/01/14 09:38:45;;;;;;;54.92;25.40;;;4.20;99.90;;;;;;5037575;28;20033;-80
2024/01/14 09:41:34;;;;;;;57.17;26.60;;;4.20;99.90;;;;;;5039900;28;20040;-80
2024/01/14 09:44:02;;;;;;;50.95;26.63;;;4.20;99.90;;;;;;5045234;28;20032;-80
2024/01/14 09:46:28;;;;;;;56.85;27.17;;;4.30;99.90;;;;;;5052856;28;20029;-81
2024/01/14 09:48:55;;;;;;;53.10;25.73;;;4.30;99.90;;;;;;5052517;28;20145;-79
2024/01/14 09:51:27;;;;;;;54.25;26.13;;;4.30;99.90;;;;;;5048203;28;20069;-80
2024/01/14 09:53:55;;;;;;;52.10;26.73;;;4.30;99.90;;;;;;5012973;28;20650;-80
2024/01/14 09:56:21;;;;;;;51.80;26.48;;;4.40;99.90;;;;;;5020214;28;20485;-80
2024/01/14 09:58:48;;;;;;;57.25;27.35;;;4.40;99.90;;;;;;5041180;28;20027;-79
2024/01/14 10:01:16;;;;;;;55.92;27.90;;;4.40;99.90;;;;;;5052559;28;20029;-80
2024/01/14 10:03:42;;;;;;;51.20;26.23;;;4.30;99.90;;;;;;5033767;28;20063;-80
2024/01/14 10:06:07;;;;;;;56.75;27.30;;;4.40;99.90;;;;;;5051449;28;20060;-80
2024/01/14 10:08:33;;;;;;;49.35;24.83;;;4.40;99.90;;;;;;5039727;28;20072;-81
2024/01/14 10:11:02;;;;;;;52.10;26.80;;;4.40;99.90;;;;;;5037235;28;20079;-81
2024/01/14 10:13:28;;;;;;;55.73;27.77;;;4.40;99.90;;;;;;5046306;28;20032;-80
2024/01/14 10:15:54;;;;;;;60.70;27.92;;;4.40;99.90;;;;;;5033990;28;20339;-79
2024/01/14 10:18:20;;;;;;;50.95;26.85;;;4.40;99.90;;;;;;5029107;28;20025;-80
2024/01/14 10:20:46;;;;;;;53.83;26.27;;;4.40;99.90;;;;;;5035246;28;20025;-81
2024/01/14 10:23:11;;;;;;;52.85;25.90;;;4.40;99.90;;;;;;5031521;28;20033;-81
2024/01/14 10:25:37;;;;;;;57.53;27.13;;;4.30;99.90;;;;;;5029869;28;20032;-81
2024/01/14 10:28:06;;;;;;;58.75;28.45;;;4.30;99.90;;;;;;5032839;28;20074;-80
2024/01/14 10:30:32;;;;;;;62.20;26.83;;;4.30;99.90;;;;;;5038365;28;20037;-81
2024/01/14 10:32:57;;;;;;;56.38;26.35;;;4.30;99.90;;;;;;5036218;28;20545;-79
2024/01/14 10:35:27;;;;;;;60.72;27.63;;;4.30;99.90;;;;;;5039036;28;20033;-79
2024/01/14 10:37:52;;;;;;;59.60;28.83;;;4.30;99.90;;;;;;5030557;28;20083;-81
2024/01/14 10:40:18;;;;;;;62.25;27.83;;;4.30;99.90;;;;;;5017713;28;20424;-81
2024/01/14 10:42:44;;;;;;;61.33;27.05;;;4.20;99.90;;;;;;5022434;28;20034;-81
2024/01/14 10:45:10;;;;;;;62.47;28.13;;;4.20;99.90;;;;;;5044683;28;20025;-80
2024/01/14 10:47:36;;;;;;;62.10;27.63;;;4.20;99.90;;;;;;5031969;28;20119;-81
2024/01/14 10:50:03;;;;;;;55.97;26.15;;;4.20;99.90;;;;;;5047215;28;20044;-80
2024/01/14 10:52:33;;;;;;;58.15;28.25;;;4.20;99.90;;;;;;5030806;28;20049;-81
2024/01/14 10:55:09;;;;;;;59.67;26.50;;;4.30;99.90;;;;;;5026865;28;20021;-80
2024/01/14 10:57:42;;;;;;;59.35;27.52;;;4.20;99.90;;;;;;5037194;28;20046;-80
2024/01/14 11:00:09;;;;;;;58.50;25.60;;;4.20;99.90;;;;;;5036076;28;20030;-80
2024/01/14 11:02:37;;;;;;;56.75;27.00;;;4.20;99.90;;;;;;5026831;28;20021;-81
2024/01/14 11:05:05;;;;;;;64.75;27.88;;;4.20;99.90;;;;;;5023937;28;20481;-81
2024/01/14 11:07:34;;;;;;;51.90;26.80;;;4.10;99.90;;;;;;5028838;28;20029;-81
2024/01/14 11:10:02;;;;;;;59.20;27.95;;;4.10;99.90;;;;;;5030950;28;20041;-81
2024/01/14 11:12:39;;;;;;;52.83;25.75;;;4.10;99.90;;;;;;5030829;28;20025;-81
2024/01/14 11:15:15;;;;;;;53.33;27.08;;;4.00;99.90;;;;;;5029282;28;20179;-81
2024/01/14 11:18:14;;;;;;;63.75;27.60;;;3.90;99.90;;;;;;5030547;28;20033;-79
2024/01/14 11:20:44;;;;;;;53.85;26.33;;;3.90;99.90;;;;;;5016844;28;20029;-79
2024/01/14 11:23:09;;;;;;;50.10;23.90;;;3.80;99.90;;;;;;5021029;28;20025;-81
2024/01/14 11:25:36;;;;;;;57.22;27.35;;;3.70;99.90;;;;;;5025159;28;20556;-79
2024/01/14 11:28:02;;;;;;;55.72;25.35;;;3.80;99.90;;;;;;5026095;28;20107;-79
2024/01/14 11:30:53;;;;;;;53.60;24.02;;;3.70;99.90;;;;;;5023363;28;20118;-79
2024/01/14 11:33:42;;;;;;;46.88;22.45;;;3.70;99.90;;;;;;5018321;28;20029;-78
2024/01/14 11:36:09;;;;;;;43.15;21.55;;;3.80;99.90;;;;;;5027864;28;20045;-79
2024/01/14 11:38:37;;;;;;;43.90;22.40;;;3.80;99.90;;;;;;5028687;28;20034;-80
2024/01/14 11:41:25;;;;;;;50.67;23.85;;;3.90;99.90;;;;;;5028814;28;20025;-78
2024/01/14 11:44:11;;;;;;;46.25;22.50;;;4.00;99.90;;;;;;5028073;28;20061;-79
2024/01/14 11:46:46;;;;;;;48.15;23.30;;;4.00;99.90;;;;;;5026428;28;20091;-79
2024/01/14 11:49:17;;;;;;;48.92;23.58;;;4.00;99.90;;;;;;5008687;28;20065;-78
2024/01/14 11:51:59;;;;;;;52.20;24.33;;;4.10;99.90;;;;;;5021264;28;20052;-79
2024/01/14 11:54:25;;;;;;;46.72;25.73;;;4.10;99.90;;;;;;5018377;28;20029;-79
2024/01/14 11:56:52;;;;;;;54.15;26.15;;;4.10;99.90;;;;;;5027670;28;20067;-78
2024/01/14 11:59:18;;;;;;;56.83;25.65;;;4.10;99.90;;;;;;5018820;28;20033;-79
2024/01/14 12:01:43;;;;;;;53.30;26.60;;;4.10;99.90;;;;;;5017697;28;20474;-79
2024/01/14 12:04:09;;;;;;;55.63;27.50;;;4.10;99.90;;;;;;5027659;28;20025;-78
2024/01/14 12:06:46;;;;;;;52.35;25.75;;;4.10;99.90;;;;;;5021911;28;20113;-79
2024/01/14 12:09:15;;;;;;;58.47;27.17;;;4.20;99.90;;;;;;5011112;28;20357;-80
2024/01/14 12:11:41;;;;;;;32.53;17.40;;;4.10;99.90;;;;;;5008258;28;20060;-79
2024/01/14 12:14:08;;;;;;;50.65;24.85;;;4.10;99.90;;;;;;5029169;28;20044;-80
2024/01/14 12:16:35;;;;;;;55.42;26.85;;;4.10;99.90;;;;;;5031426;28;20095;-79
2024/01/14 12:19:11;;;;;;;57.15;27.25;;;4.10;99.90;;;;;;5031112;28;20450;-81
2024/01/14 12:21:37;;;;;;;50.17;26.20;;;4.10;99.90;;;;;;5030490;28;20033;-79
2024/01/14 12:24:03;;;;;;;53.42;25.15;;;4.10;99.90;;;;;;5033069;28;20028;-81
2024/01/14 12:26:29;;;;;;;47.50;23.48;;;4.10;99.90;;;;;;5030302;28;20056;-79
2024/01/14 12:28:55;;;;;;;45.00;22.88;;;4.20;99.90;;;;;;5032122;28;20084;-81
2024/01/14 12:31:24;;;;;;;41.22;22.23;;;4.10;99.90;;;;;;5031338;28;20497;-80
2024/01/14 12:33:49;;;;;;;43.35;22.15;;;4.20;99.90;;;;;;5033029;28;20022;-80